createdAt,value
2018-03-25T10:20:22.881Z,8.14
2018-03-25T10:30:52.649Z,8.33
2018-03-25T10:35:53.622Z,8.34
2018-03-25T10:40:54.602Z,8.18
2018-03-25T10:45:55.613Z,8.46
2018-03-25T10:50:56.566Z,8.12
2018-03-25T10:55:57.548Z,8.45
2018-03-25T11:00:58.536Z,8.33
2018-03-25T11:05:59.877Z,8.37
2018-03-25T11:11:00.868Z,8.82
2018-03-25T11:16:01.817Z,8.76
2018-03-25T11:21:02.768Z,8.90
2018-03-25T11:26:03.992Z,9.11
2018-03-25T11:31:04.985Z,9.38
2018-03-25T11:47:11.028Z,8.99
2018-03-25T11:52:12.040Z,8.88
2018-03-25T11:57:13.032Z,9.16
2018-03-25T12:02:13.999Z,8.73
2018-03-25T12:07:15.002Z,8.71
2018-03-25T12:12:15.983Z,8.60
2018-03-25T12:22:51.430Z,9.35
2018-03-25T12:27:52.446Z,9.45
2018-03-25T12:32:53.397Z,9.64
2018-03-25T12:37:55.641Z,9.42
2018-03-25T12:42:56.639Z,9.59
2018-03-25T12:47:57.581Z,9.69
2018-03-25T12:52:58.525Z,9.70
2018-03-25T12:57:59.482Z,9.89
2018-03-25T13:03:00.483Z,9.80
2018-03-25T13:08:01.483Z,9.83
2018-03-25T13:13:02.467Z,9.17
2018-03-25T13:18:03.458Z,9.51
2018-03-25T13:23:04.457Z,9.39
2018-03-25T13:28:05.904Z,9.12
2018-03-25T13:33:06.844Z,9.55
2018-03-25T13:43:42.765Z,9.83
2018-03-25T13:48:43.749Z,9.89
2018-03-25T13:53:44.712Z,10.05
2018-03-25T13:58:45.684Z,9.98
2018-03-25T14:03:46.649Z,9.92
2018-03-25T14:08:47.933Z,10.11
2018-03-25T14:13:49.200Z,9.77
2018-03-25T14:18:50.191Z,9.88
2018-03-25T14:23:51.161Z,10.19
2018-03-25T14:28:52.198Z,9.84
2018-03-25T14:33:53.159Z,9.68
2018-03-25T14:38:54.118Z,9.45
2018-03-25T14:43:55.081Z,9.02
2018-03-25T14:48:56.044Z,9.35
2018-03-25T14:53:57.020Z,9.56
2018-03-25T14:58:57.968Z,9.82
2018-03-25T15:03:58.912Z,9.26
2018-03-25T15:09:00.227Z,9.72
2018-03-25T15:14:01.518Z,9.79
2018-03-25T15:19:02.512Z,9.87
2018-03-25T15:24:03.530Z,9.41
2018-03-25T15:29:04.521Z,9.40
2018-03-25T15:34:05.958Z,9.56
2018-03-25T15:39:06.912Z,9.39
2018-03-25T15:44:07.923Z,9.38
2018-03-25T15:49:08.925Z,9.44
2018-03-25T15:54:09.882Z,9.52
2018-03-25T15:59:10.883Z,9.41
2018-03-25T16:04:11.888Z,9.45
2018-03-25T16:09:12.872Z,9.68
2018-03-25T16:14:13.834Z,9.43
2018-03-25T16:19:15.077Z,9.43
2018-03-25T16:24:16.038Z,9.43
2018-03-25T16:29:17.085Z,9.21
2018-03-25T16:34:18.113Z,9.43
2018-03-25T16:39:19.135Z,9.30
2018-03-25T16:44:20.125Z,9.41
2018-03-25T16:49:21.103Z,8.93
2018-03-25T16:54:22.078Z,9.35
2018-03-25T16:59:23.093Z,9.50
2018-03-25T17:04:24.071Z,9.36
2018-03-25T17:09:25.062Z,9.36
2018-03-25T17:14:26.068Z,9.40
2018-03-25T17:19:27.033Z,9.44
2018-03-25T17:24:27.984Z,9.54
2018-03-25T17:29:29.022Z,9.45
2018-03-25T17:34:30.003Z,9.27
2018-03-25T17:39:30.980Z,9.41
2018-03-25T17:44:32.011Z,9.46
2018-03-25T18:00:33.938Z,9.35
2018-03-25T18:05:34.909Z,9.14
2018-03-25T18:10:35.914Z,10.01
2018-03-25T18:15:36.899Z,10.49
2018-03-25T18:20:37.874Z,9.90
2018-03-25T18:25:38.813Z,9.75
2018-03-25T18:30:39.835Z,9.68
2018-03-25T18:35:40.811Z,9.51
2018-03-25T18:40:41.785Z,9.46
2018-03-25T18:45:42.757Z,9.17
2018-03-25T18:50:43.777Z,9.20
2018-03-25T18:55:44.809Z,9.32
2018-03-25T19:00:45.842Z,9.24
2018-03-25T19:05:46.865Z,9.35
2018-03-25T19:10:47.869Z,9.26
2018-03-25T19:15:48.924Z,8.89
2018-03-25T19:20:50.032Z,9.21
2018-03-25T19:25:51.126Z,9.11
2018-03-25T19:30:53.092Z,9.29
2018-03-25T19:35:54.089Z,9.21
2018-03-25T19:40:55.080Z,9.23
2018-03-25T19:45:56.058Z,9.01
2018-03-25T19:50:57.045Z,9.33
2018-03-25T19:55:58.043Z,9.22
2018-03-25T20:00:59.103Z,9.18
2018-03-25T20:06:00.108Z,9.14
2018-03-25T20:11:01.137Z,9.06
2018-03-25T20:16:02.096Z,8.79
2018-03-25T20:21:03.113Z,8.95
2018-03-25T20:26:04.104Z,8.79
2018-03-25T20:31:05.073Z,8.84
2018-03-25T20:36:06.449Z,8.95
2018-03-25T22:04:49.116Z,8.33
2018-03-25T22:09:50.100Z,8.15
2018-03-25T22:14:51.064Z,8.16
2018-03-25T22:19:52.029Z,8.13
2018-03-25T22:24:52.961Z,7.86
2018-03-25T22:29:54.377Z,7.94
2018-03-25T22:34:55.304Z,7.94
2018-03-25T22:39:57.228Z,7.74
2018-03-25T22:44:58.184Z,7.64
2018-03-25T22:49:59.232Z,7.80
2018-03-25T22:55:00.477Z,7.27
2018-03-25T23:00:01.765Z,7.64
2018-03-25T23:05:03.248Z,7.40
2018-03-25T23:10:04.264Z,7.61
2018-03-25T23:15:05.256Z,7.62
2018-03-25T23:20:06.432Z,7.53
2018-03-25T23:25:07.691Z,7.21
2018-03-25T23:30:08.939Z,7.32
2018-03-25T23:35:10.206Z,7.57
2018-03-25T23:40:11.135Z,7.61
2018-03-25T23:45:12.078Z,7.54
2018-03-25T23:50:13.026Z,7.40
2018-03-25T23:55:13.949Z,7.45
